Time;durP1;ratioP1;P1;durP2;ratioP2;P2;SDS_P1;SDS_P2;PMS_P1;PMS_P2;Temp;Humidity;BMP_temperature;BMP_pressure;BME280_temperature;BME280_humidity;BME280_pressure;Samples;Min_cycle;Max_cycle;Signal;HPM_P1;HPM_P2
2022/10/26 00:01:52;;;;;;;4.97;2.73;;;12.90;99.90;;;;;;6298812;28;20549;-66
2022/10/26 00:04:55;;;;;;;5.90;3.00;;;12.90;99.90;;;;;;6295941;28;20552;-68
2022/10/26 00:07:58;;;;;;;2.67;2.30;;;12.90;99.90;;;;;;6296970;28;20481;-68
2022/10/26 00:11:03;;;;;;;6.00;2.93;;;12.80;99.90;;;;;;6296565;28;20473;-67
2022/10/26 00:14:06;;;;;;;4.57;2.80;;;12.80;99.90;;;;;;6296727;28;20782;-67
2022/10/26 00:17:09;;;;;;;4.27;2.17;;;12.80;99.90;;;;;;6300198;28;21267;-67
2022/10/26 00:20:13;;;;;;;6.20;3.33;;;12.80;99.90;;;;;;6297786;28;20481;-67
2022/10/26 00:23:16;;;;;;;3.57;2.50;;;12.70;99.90;;;;;;6298212;28;20603;-66
2022/10/26 00:26:21;;;;;;;3.50;2.67;;;12.60;99.90;;;;;;6298065;28;20481;-65
2022/10/26 00:29:24;;;;;;;4.27;2.80;;;12.60;99.90;;;;;;6297981;28;20619;-67
2022/10/26 00:32:28;;;;;;;5.67;2.70;;;12.60;99.90;;;;;;6298333;28;20849;-68
2022/10/26 00:35:31;;;;;;;3.60;2.67;;;12.50;99.90;;;;;;6298199;28;20826;-68
2022/10/26 00:38:49;;;;;;;4.53;3.47;;;12.60;99.90;;;;;;6296937;28;20644;-68
2022/10/26 00:41:53;;;;;;;3.50;2.80;;;12.50;99.90;;;;;;6298387;28;20538;-68
2022/10/26 00:45:04;;;;;;;4.13;3.13;;;12.50;99.90;;;;;;6297999;28;20469;-67
2022/10/26 00:48:14;;;;;;;4.20;3.10;;;12.40;99.90;;;;;;6298440;28;20457;-67
2022/10/26 00:51:24;;;;;;;4.57;3.03;;;12.40;99.90;;;;;;6298130;28;20481;-67
2022/10/26 00:54:27;;;;;;;4.87;3.23;;;12.40;99.90;;;;;;6298690;28;20461;-67
2022/10/26 00:57:32;;;;;;;3.27;3.03;;;12.40;99.90;;;;;;6298041;28;20468;-68
2022/10/26 01:00:36;;;;;;;5.10;2.70;;;12.40;99.90;;;;;;6298775;28;20465;-68
2022/10/26 01:03:39;;;;;;;5.13;3.10;;;12.40;99.90;;;;;;6298706;28;20469;-67
2022/10/26 01:06:44;;;;;;;3.60;2.93;;;12.40;99.90;;;;;;6298506;28;20824;-67
2022/10/26 01:09:48;;;;;;;3.93;2.87;;;12.30;99.90;;;;;;6298238;28;20500;-68
2022/10/26 01:12:55;;;;;;;6.50;3.43;;;12.30;99.90;;;;;;6297178;28;20502;-68
2022/10/26 01:16:09;;;;;;;6.33;3.17;;;12.20;99.90;;;;;;6296968;28;20526;-68
2022/10/26 01:19:56;;;;;;;3.00;2.70;;;12.20;99.90;;;;;;6300952;28;20953;-67
2022/10/26 01:23:04;;;;;;;6.67;2.83;;;12.20;99.90;;;;;;6302346;28;20563;-68
2022/10/26 01:26:27;;;;;;;4.03;3.03;;;12.10;99.90;;;;;;6302306;28;20469;-68
2022/10/26 01:30:12;;;;;;;4.10;2.50;;;12.10;99.90;;;;;;6302215;28;20481;-68
2022/10/26 01:33:43;;;;;;;5.07;2.93;;;12.10;99.90;;;;;;6300837;28;20490;-68
2022/10/26 01:36:53;;;;;;;6.77;2.80;;;12.10;99.90;;;;;;6288650;28;20465;-67
2022/10/26 01:40:02;;;;;;;4.53;2.93;;;12.10;99.90;;;;;;6302158;28;20498;-67
2022/10/26 01:43:09;;;;;;;4.87;3.07;;;12.00;99.90;;;;;;6302268;28;20526;-67
2022/10/26 01:46:13;;;;;;;3.17;2.53;;;12.00;99.90;;;;;;6302059;28;20992;-67
2022/10/26 01:49:22;;;;;;;4.30;2.60;;;12.00;99.90;;;;;;6301852;28;20465;-67
2022/10/26 01:52:26;;;;;;;7.03;2.50;;;11.90;99.90;;;;;;6300246;28;20980;-67
2022/10/26 01:55:50;;;;;;;2.50;2.30;;;11.90;99.90;;;;;;6299636;28;20474;-67
2022/10/26 01:59:19;;;;;;;6.97;2.47;;;11.90;99.90;;;;;;6295220;28;20465;-67
2022/10/26 02:02:40;;;;;;;3.70;2.33;;;11.80;99.90;;;;;;6300886;28;20457;-67
2022/10/26 02:05:56;;;;;;;2.23;2.00;;;11.70;99.90;;;;;;6300277;28;20466;-68
2022/10/26 02:09:11;;;;;;;3.30;3.00;;;11.70;99.90;;;;;;6301673;28;20485;-67
2022/10/26 02:12:25;;;;;;;3.70;3.03;;;11.70;99.90;;;;;;6301439;28;20499;-67
2022/10/26 02:15:37;;;;;;;3.07;2.87;;;11.70;99.90;;;;;;6301421;28;20465;-67
2022/10/26 02:18:46;;;;;;;3.40;2.70;;;11.70;99.90;;;;;;6300911;28;20485;-67
2022/10/26 02:21:54;;;;;;;2.80;2.60;;;11.70;99.90;;;;;;6300990;28;20461;-67
2022/10/26 02:25:01;;;;;;;3.33;2.77;;;11.60;99.90;;;;;;6300908;28;20546;-67
2022/10/26 02:28:07;;;;;;;4.17;3.03;;;11.60;99.90;;;;;;6300167;28;20538;-67
2022/10/26 02:31:13;;;;;;;3.47;2.60;;;11.60;99.90;;;;;;6300926;28;20473;-67
2022/10/26 02:34:21;;;;;;;3.20;2.50;;;11.60;99.90;;;;;;6292131;28;20480;-68
2022/10/26 02:37:28;;;;;;;3.63;1.97;;;11.60;99.90;;;;;;6300891;28;20485;-67
2022/10/26 02:40:34;;;;;;;3.53;2.63;;;11.60;99.90;;;;;;6300842;28;20547;-67
2022/10/26 02:43:42;;;;;;;3.23;2.17;;;11.60;99.90;;;;;;6300966;28;20477;-67
2022/10/26 02:46:46;;;;;;;4.37;2.83;;;11.60;99.90;;;;;;6300653;28;20476;-67
2022/10/26 02:49:49;;;;;;;4.17;3.10;;;11.60;99.90;;;;;;6300149;28;20837;-68
2022/10/26 02:53:02;;;;;;;9.27;3.20;;;11.50;99.90;;;;;;6300138;28;20473;-68
2022/10/26 02:56:12;;;;;;;4.00;2.57;;;11.50;99.90;;;;;;6300418;28;20473;-67
2022/10/26 02:59:18;;;;;;;3.97;2.70;;;11.50;99.90;;;;;;6299972;28;20578;-67
2022/10/26 03:02:23;;;;;;;3.90;2.70;;;11.50;99.90;;;;;;6300894;28;20484;-67
2022/10/26 03:05:28;;;;;;;2.50;2.17;;;11.50;99.90;;;;;;6299785;28;20477;-67
2022/10/26 03:08:32;;;;;;;3.50;2.57;;;11.40;99.90;;;;;;6299773;28;20477;-67
2022/10/26 03:11:35;;;;;;;3.93;2.60;;;11.40;99.90;;;;;;6304060;28;20984;-66
2022/10/26 03:14:40;;;;;;;6.90;2.53;;;11.50;99.90;;;;;;6301668;28;20530;-68
2022/10/26 03:17:43;;;;;;;4.10;3.20;;;11.40;99.90;;;;;;6298532;28;20477;-67
2022/10/26 03:20:46;;;;;;;3.33;3.03;;;11.50;99.90;;;;;;6298700;28;20473;-68
2022/10/26 03:23:51;;;;;;;4.27;2.97;;;11.40;99.90;;;;;;6299021;28;20473;-67
2022/10/26 03:26:54;;;;;;;3.90;2.90;;;11.40;99.90;;;;;;6299021;28;20955;-67
2022/10/26 03:30:03;;;;;;;4.83;3.03;;;11.30;99.90;;;;;;6299409;28;20493;-67
2022/10/26 03:33:06;;;;;;;3.37;3.07;;;11.40;99.90;;;;;;6299380;28;20562;-67
2022/10/26 03:36:10;;;;;;;4.30;3.00;;;11.40;99.90;;;;;;6293674;28;20449;-68
2022/10/26 03:39:15;;;;;;;5.40;3.70;;;11.30;99.90;;;;;;6299246;28;20819;-67
2022/10/26 03:42:18;;;;;;;4.63;4.20;;;11.30;99.90;;;;;;6299680;28;20441;-67
2022/10/26 03:45:21;;;;;;;4.73;3.70;;;11.20;99.90;;;;;;6299971;28;20445;-67
2022/10/26 03:48:24;;;;;;;5.33;3.27;;;11.10;99.90;;;;;;6298841;28;20473;-67
2022/10/26 03:51:28;;;;;;;4.00;3.57;;;11.10;99.90;;;;;;6299837;28;20526;-67
2022/10/26 03:54:32;;;;;;;4.30;3.50;;;11.10;99.90;;;;;;6299859;28;20480;-68
2022/10/26 03:57:39;;;;;;;3.30;3.10;;;11.10;99.90;;;;;;6298929;28;21002;-67
2022/10/26 04:00:42;;;;;;;3.33;3.13;;;11.10;99.90;;;;;;6299212;28;20472;-67
2022/10/26 04:03:46;;;;;;;3.87;3.57;;;11.10;99.90;;;;;;6298403;28;21010;-67
2022/10/26 04:06:49;;;;;;;4.20;3.80;;;11.20;99.90;;;;;;6298799;28;20937;-68
2022/10/26 04:09:53;;;;;;;3.83;2.87;;;11.20;99.90;;;;;;6298422;28;20473;-68
2022/10/26 04:12:59;;;;;;;3.63;2.97;;;11.20;99.90;;;;;;6299435;28;20473;-68
2022/10/26 04:16:02;;;;;;;3.17;2.87;;;11.20;99.90;;;;;;6298108;28;20823;-68
2022/10/26 04:19:05;;;;;;;3.83;3.10;;;11.30;99.90;;;;;;6298815;28;20477;-67
2022/10/26 04:22:08;;;;;;;5.83;3.93;;;11.30;99.90;;;;;;6298856;28;20535;-67
2022/10/26 04:25:12;;;;;;;6.03;3.80;;;11.30;99.90;;;;;;6298763;28;20492;-67
2022/10/26 04:28:16;;;;;;;5.53;3.20;;;11.30;99.90;;;;;;6298188;28;20480;-67
2022/10/26 04:31:19;;;;;;;6.20;3.50;;;11.20;99.90;;;;;;6298585;28;20484;-67
2022/10/26 04:34:22;;;;;;;4.43;3.00;;;11.20;99.90;;;;;;6298596;28;20960;-68
2022/10/26 04:37:25;;;;;;;4.80;2.67;;;11.20;99.90;;;;;;6298443;28;20469;-68
2022/10/26 04:40:31;;;;;;;3.90;3.13;;;11.20;99.90;;;;;;6298572;28;20469;-67
2022/10/26 04:43:35;;;;;;;2.60;2.40;;;11.20;99.90;;;;;;6298106;28;20801;-67
2022/10/26 04:46:38;;;;;;;2.97;2.70;;;11.20;99.90;;;;;;6298840;28;20945;-67
2022/10/26 04:49:41;;;;;;;5.53;3.20;;;11.20;99.90;;;;;;6297862;28;20484;-68
2022/10/26 04:52:50;;;;;;;4.50;3.33;;;11.20;99.90;;;;;;6301334;28;20469;-68
2022/10/26 04:55:58;;;;;;;3.73;2.87;;;11.30;99.90;;;;;;6301173;28;20957;-68
2022/10/26 04:59:01;;;;;;;3.30;3.00;;;11.30;99.90;;;;;;6301793;28;20488;-67
2022/10/26 05:02:05;;;;;;;3.10;2.90;;;11.40;99.90;;;;;;6301944;28;20480;-68
2022/10/26 05:05:08;;;;;;;5.80;3.57;;;11.40;99.90;;;;;;6302089;28;20468;-68
2022/10/26 05:08:16;;;;;;;5.90;3.57;;;11.40;99.90;;;;;;6302221;28;20473;-68
2022/10/26 05:11:21;;;;;;;3.57;3.23;;;11.40;99.90;;;;;;6302315;28;20843;-68
2022/10/26 05:14:24;;;;;;;4.80;3.00;;;11.40;99.90;;;;;;6302756;28;20511;-68
2022/10/26 05:17:28;;;;;;;3.97;3.13;;;11.40;99.90;;;;;;6302858;28;20473;-67
2022/10/26 05:20:33;;;;;;;3.87;3.10;;;11.50;99.90;;;;;;6310742;28;20480;-67
2022/10/26 05:23:36;;;;;;;6.20;3.63;;;11.50;99.90;;;;;;6310340;28;20453;-67
2022/10/26 05:26:40;;;;;;;4.43;3.70;;;11.50;99.90;;;;;;6302298;28;20481;-67
2022/10/26 05:29:44;;;;;;;3.87;3.23;;;11.50;99.90;;;;;;6302359;28;20469;-68
2022/10/26 05:32:54;;;;;;;7.13;5.50;;;11.60;99.90;;;;;;6302268;28;20484;-68
2022/10/26 05:35:57;;;;;;;6.53;5.57;;;11.70;99.90;;;;;;6302097;28;20486;-67
2022/10/26 05:39:00;;;;;;;6.30;4.27;;;11.70;99.90;;;;;;6301866;28;20534;-68
2022/10/26 05:42:05;;;;;;;5.10;4.13;;;11.70;99.90;;;;;;6301958;28;20476;-67
2022/10/26 05:45:08;;;;;;;4.07;3.63;;;11.70;99.90;;;;;;6293251;28;20454;-67
2022/10/26 05:48:12;;;;;;;8.63;6.57;;;11.70;99.90;;;;;;6301797;28;20465;-66
2022/10/26 05:51:15;;;;;;;7.30;5.47;;;11.70;99.90;;;;;;6302036;28;20445;-68
2022/10/26 05:54:18;;;;;;;5.70;5.20;;;11.70;99.90;;;;;;6302042;28;20489;-68
2022/10/26 05:57:23;;;;;;;6.43;5.57;;;11.70;99.90;;;;;;6302782;28;20446;-68
2022/10/26 06:00:28;;;;;;;6.03;5.43;;;11.70;99.90;;;;;;6302158;28;20457;-67
2022/10/26 06:03:42;;;;;;;5.53;4.83;;;11.80;99.90;;;;;;6300818;28;20844;-67
2022/10/26 06:06:49;;;;;;;6.07;5.53;;;11.80;99.90;;;;;;6301585;28;20917;-67
2022/10/26 06:09:52;;;;;;;8.87;7.07;;;11.90;99.90;;;;;;6301463;28;20496;-67
2022/10/26 06:12:57;;;;;;;7.47;6.37;;;11.90;99.90;;;;;;6301731;28;20477;-67
2022/10/26 06:16:21;;;;;;;8.50;5.43;;;12.00;99.90;;;;;;6301767;28;20474;-66
2022/10/26 06:19:34;;;;;;;5.03;4.50;;;12.10;99.90;;;;;;6301499;28;20477;-66
2022/10/26 06:22:53;;;;;;;7.40;5.30;;;12.20;99.90;;;;;;6301732;28;20478;-66
2022/10/26 06:26:05;;;;;;;5.47;4.97;;;12.30;99.90;;;;;;6300937;28;20548;-66
2022/10/26 06:29:22;;;;;;;4.77;4.33;;;12.30;99.90;;;;;;6301074;28;20476;-67
2022/10/26 06:32:25;;;;;;;5.80;5.03;;;12.30;99.90;;;;;;6300819;28;20469;-67
2022/10/26 06:35:36;;;;;;;5.43;4.53;;;12.40;99.90;;;;;;6300721;28;20473;-67
2022/10/26 06:38:43;;;;;;;7.70;4.60;;;12.50;99.90;;;;;;6300578;28;20642;-66
2022/10/26 06:41:46;;;;;;;4.30;4.00;;;12.50;99.90;;;;;;6299008;28;20473;-66
2022/10/26 06:44:52;;;;;;;7.80;4.80;;;12.60;99.90;;;;;;6301820;28;20949;-66
2022/10/26 06:48:00;;;;;;;6.57;4.07;;;12.80;99.90;;;;;;6302697;28;20481;-66
2022/10/26 06:51:04;;;;;;;4.23;3.90;;;12.90;99.90;;;;;;6289069;28;20470;-66
2022/10/26 06:54:16;;;;;;;8.10;4.50;;;13.10;99.90;;;;;;6297886;28;20473;-66
2022/10/26 06:57:21;;;;;;;4.83;4.30;;;13.20;99.90;;;;;;6297071;28;20440;-67
2022/10/26 07:00:27;;;;;;;5.30;4.50;;;13.10;99.90;;;;;;6300940;28;20464;-67
2022/10/26 07:03:30;;;;;;;4.97;4.30;;;13.10;99.90;;;;;;6300525;28;20480;-66
2022/10/26 07:06:33;;;;;;;4.90;3.93;;;13.00;99.90;;;;;;6300790;28;20841;-67
2022/10/26 07:09:41;;;;;;;5.50;5.10;;;13.00;99.90;;;;;;6300351;28;20793;-67
2022/10/26 07:12:44;;;;;;;5.73;5.10;;;13.00;99.90;;;;;;6299887;28;20464;-67
2022/10/26 07:15:49;;;;;;;6.40;5.77;;;13.00;99.90;;;;;;6298970;28;20481;-66
2022/10/26 07:18:52;;;;;;;7.50;4.50;;;12.90;99.90;;;;;;6298568;28;20704;-67
2022/10/26 07:21:58;;;;;;;5.60;5.10;;;12.80;99.90;;;;;;6299141;28;20482;-67
2022/10/26 07:25:01;;;;;;;5.17;4.70;;;12.70;99.90;;;;;;6299612;28;20473;-67
2022/10/26 07:28:06;;;;;;;5.33;4.80;;;12.80;99.90;;;;;;6299757;28;20976;-66
2022/10/26 07:31:10;;;;;;;5.50;5.00;;;12.90;99.90;;;;;;6300445;28;20473;-67
2022/10/26 07:34:14;;;;;;;5.90;5.40;;;12.90;99.90;;;;;;6304388;28;20953;-66
2022/10/26 07:37:17;;;;;;;6.20;5.60;;;12.70;99.90;;;;;;6317151;28;20480;-66
2022/10/26 07:40:20;;;;;;;5.93;5.43;;;12.60;99.90;;;;;;6304590;28;20477;-67
2022/10/26 07:43:24;;;;;;;6.10;5.50;;;12.70;99.90;;;;;;6300027;28;20501;-67
2022/10/26 07:46:29;;;;;;;6.07;5.57;;;12.80;99.90;;;;;;6299832;28;20468;-67
2022/10/26 07:49:32;;;;;;;5.87;5.20;;;12.90;99.90;;;;;;6299306;28;20563;-67
2022/10/26 07:52:35;;;;;;;6.60;5.90;;;13.00;99.90;;;;;;6294981;28;20488;-66
2022/10/26 07:55:39;;;;;;;11.00;8.00;;;12.90;99.90;;;;;;6299473;28;20813;-67
2022/10/26 07:58:42;;;;;;;8.20;5.80;;;13.10;99.90;;;;;;6298298;28;20542;-66
2022/10/26 08:01:46;;;;;;;9.50;6.07;;;13.20;99.90;;;;;;6299534;28;20484;-67
2022/10/26 08:04:50;;;;;;;5.70;5.20;;;13.40;99.90;;;;;;6300140;28;20491;-66
2022/10/26 08:07:53;;;;;;;6.07;5.30;;;13.60;99.90;;;;;;6299235;28;20473;-66
2022/10/26 08:10:56;;;;;;;4.87;4.37;;;13.90;99.90;;;;;;6299791;28;20526;-66
2022/10/26 08:13:59;;;;;;;5.90;5.40;;;14.00;99.90;;;;;;6300651;28;20818;-66
2022/10/26 08:17:04;;;;;;;5.60;5.10;;;14.10;99.90;;;;;;6303806;28;20476;-66
2022/10/26 08:20:08;;;;;;;4.80;4.40;;;14.30;99.90;;;;;;6299902;28;20526;-67
2022/10/26 08:23:11;;;;;;;5.40;4.70;;;14.40;99.90;;;;;;6299239;28;20477;-66
2022/10/26 08:26:14;;;;;;;6.40;5.27;;;14.50;99.90;;;;;;6299728;28;20957;-66
2022/10/26 08:29:17;;;;;;;5.50;5.00;;;14.60;99.90;;;;;;6304141;28;20480;-66
2022/10/26 08:32:22;;;;;;;7.83;5.90;;;14.70;99.90;;;;;;6304943;28;20479;-67
2022/10/26 08:35:25;;;;;;;5.30;4.57;;;14.70;99.90;;;;;;6304917;28;20504;-67
2022/10/26 08:38:29;;;;;;;4.80;4.40;;;14.80;99.90;;;;;;6304468;28;20476;-67
2022/10/26 08:41:37;;;;;;;5.37;4.87;;;14.90;99.90;;;;;;6304667;28;20473;-67
2022/10/26 08:44:45;;;;;;;11.77;9.57;;;15.10;99.90;;;;;;6306951;28;20488;-67
2022/10/26 08:47:54;;;;;;;15.47;11.57;;;15.50;99.90;;;;;;6306417;28;20965;-68
2022/10/26 08:51:02;;;;;;;7.17;6.47;;;16.70;99.90;;;;;;6304306;28;20949;-67
2022/10/26 08:54:13;;;;;;;6.90;5.93;;;17.80;99.90;;;;;;6306160;28;20530;-67
2022/10/26 08:57:21;;;;;;;4.97;4.57;;;18.50;99.90;;;;;;6299728;28;20847;-68
2022/10/26 09:00:29;;;;;;;5.33;4.57;;;19.00;99.90;;;;;;6302097;28;20480;-67
2022/10/26 09:03:33;;;;;;;6.13;5.40;;;19.30;99.90;;;;;;6299953;28;20238;-67
2022/10/26 09:06:45;;;;;;;5.67;5.10;;;19.40;99.90;;;;;;6302697;28;20227;-68
2022/10/26 09:09:57;;;;;;;5.67;5.17;;;19.50;99.50;;;;;;6302339;28;20624;-67
2022/10/26 09:13:06;;;;;;;5.83;5.23;;;19.60;99.20;;;;;;6303144;28;20285;-67
2022/10/26 09:16:20;;;;;;;6.57;5.47;;;19.30;98.60;;;;;;6303149;28;20227;-67
2022/10/26 09:19:37;;;;;;;6.10;5.03;;;19.00;98.80;;;;;;6302873;28;20308;-67
2022/10/26 09:22:49;;;;;;;5.77;5.17;;;18.60;99.80;;;;;;6303250;28;20241;-68
2022/10/26 09:25:58;;;;;;;5.70;5.17;;;18.30;99.80;;;;;;6296183;28;20539;-68
2022/10/26 09:29:04;;;;;;;6.50;5.67;;;18.10;99.90;;;;;;6284704;28;20558;-69
2022/10/26 09:32:14;;;;;;;7.43;5.53;;;18.20;99.90;;;;;;6303006;28;20647;-69
2022/10/26 09:35:22;;;;;;;7.67;5.93;;;18.40;99.90;;;;;;6283291;28;20244;-69
2022/10/26 09:38:29;;;;;;;6.80;6.13;;;18.50;99.90;;;;;;6298623;28;20485;-69
2022/10/26 09:41:40;;;;;;;6.70;6.10;;;18.50;99.80;;;;;;6283640;28;20231;-69
2022/10/26 09:44:49;;;;;;;11.40;6.37;;;18.70;99.90;;;;;;6302466;28;20302;-69
2022/10/26 09:47:56;;;;;;;7.07;6.37;;;19.30;99.80;;;;;;6302113;28;20238;-69
2022/10/26 09:51:01;;;;;;;6.00;5.43;;;19.90;98.20;;;;;;6302020;28;20655;-69
2022/10/26 09:54:14;;;;;;;6.83;6.23;;;20.10;97.10;;;;;;6301886;28;20239;-69
2022/10/26 09:57:20;;;;;;;7.33;6.70;;;20.00;97.10;;;;;;6302440;28;20222;-68
2022/10/26 10:00:25;;;;;;;7.40;6.60;;;20.00;97.10;;;;;;6302370;28;20273;-68
2022/10/26 10:03:31;;;;;;;7.47;6.80;;;20.00;96.90;;;;;;6302252;28;20234;-68
2022/10/26 10:06:36;;;;;;;7.40;5.93;;;20.20;96.80;;;;;;6303261;28;20242;-68
2022/10/26 10:09:39;;;;;;;7.13;6.40;;;20.90;96.50;;;;;;6302736;28;20231;-68
2022/10/26 10:12:42;;;;;;;8.90;6.27;;;21.50;95.50;;;;;;6302161;28;20234;-68
2022/10/26 10:15:53;;;;;;;7.43;6.83;;;21.90;93.80;;;;;;6301860;28;20227;-68
2022/10/26 10:18:59;;;;;;;10.53;6.37;;;22.30;93.10;;;;;;6301783;28;20242;-68
2022/10/26 10:22:18;;;;;;;6.70;6.10;;;22.90;92.00;;;;;;6303198;28;20553;-68
2022/10/26 10:25:33;;;;;;;8.53;6.90;;;23.70;90.20;;;;;;6300785;28;20222;-68
2022/10/26 10:28:37;;;;;;;5.67;5.17;;;24.90;89.20;;;;;;6300758;28;20235;-70
2022/10/26 10:31:41;;;;;;;7.83;5.53;;;30.10;73.50;;;;;;6301825;28;20325;-68
2022/10/26 10:34:44;;;;;;;5.80;5.30;;;34.30;52.10;;;;;;6300711;28;20234;-67
2022/10/26 10:37:51;;;;;;;7.35;6.28;;;37.70;38.60;;;;;;6301048;28;20287;-67
2022/10/26 10:40:57;;;;;;;5.00;4.60;;;39.80;32.20;;;;;;6301124;28;20702;-68
2022/10/26 10:44:07;;;;;;;5.88;5.20;;;42.30;28.40;;;;;;6302725;28;20542;-68
2022/10/26 10:47:21;;;;;;;5.55;5.07;;;43.90;26.20;;;;;;6302773;28;20233;-68
2022/10/26 10:50:24;;;;;;;8.15;5.15;;;45.60;24.00;;;;;;6301696;28;20311;-68
2022/10/26 10:53:35;;;;;;;4.95;4.60;;;46.40;22.70;;;;;;6300954;28;20237;-69
2022/10/26 10:56:42;;;;;;;3.90;3.60;;;47.30;21.70;;;;;;6300213;28;20230;-69
2022/10/26 10:59:53;;;;;;;4.03;3.63;;;47.70;21.00;;;;;;6300289;28;20232;-68
2022/10/26 11:03:33;;;;;;;4.50;3.83;;;45.50;21.50;;;;;;6300072;28;20236;-68
2022/10/26 11:06:40;;;;;;;4.93;4.53;;;43.50;23.10;;;;;;6299676;28;20282;-68
2022/10/26 11:09:47;;;;;;;5.50;5.00;;;43.30;23.40;;;;;;6300056;28;20293;-65
2022/10/26 11:12:55;;;;;;;4.32;4.03;;;44.30;22.80;;;;;;6299151;28;20579;-64
2022/10/26 11:16:02;;;;;;;4.60;3.50;;;44.60;22.40;;;;;;6299947;28;20342;-66
2022/10/26 11:19:16;;;;;;;3.42;3.13;;;45.40;22.10;;;;;;6299837;28;20548;-65
2022/10/26 11:22:24;;;;;;;3.38;3.08;;;46.70;21.30;;;;;;6300049;28;20309;-66
2022/10/26 11:25:34;;;;;;;4.07;3.67;;;48.40;20.40;;;;;;6299857;28;20237;-66
2022/10/26 11:28:45;;;;;;;3.58;3.28;;;50.10;19.40;;;;;;6299271;28;20630;-67
2022/10/26 11:31:54;;;;;;;3.92;3.63;;;50.60;18.50;;;;;;6299526;28;20245;-67
2022/10/26 11:35:04;;;;;;;4.13;3.17;;;48.10;18.70;;;;;;6299418;28;20241;-66
2022/10/26 11:38:14;;;;;;;4.32;3.92;;;44.80;21.10;;;;;;6300043;28;20241;-66
2022/10/26 11:41:37;;;;;;;4.22;3.92;;;44.60;21.30;;;;;;6309491;28;20255;-66
2022/10/26 11:44:44;;;;;;;4.78;4.38;;;42.80;22.40;;;;;;6319855;28;20236;-63
2022/10/26 11:48:01;;;;;;;4.75;4.22;;;39.30;25.10;;;;;;6306453;28;20233;-69
2022/10/26 11:51:11;;;;;;;5.40;4.88;;;36.50;28.10;;;;;;6301523;28;20737;-64
2022/10/26 11:54:20;;;;;;;5.00;4.60;;;35.10;29.50;;;;;;6299915;28;20549;-66
2022/10/26 11:57:32;;;;;;;6.28;4.72;;;33.60;31.60;;;;;;6299963;28;20226;-66
2022/10/26 12:00:42;;;;;;;4.93;4.43;;;32.80;33.50;;;;;;6301426;28;20227;-66
2022/10/26 12:03:49;;;;;;;5.78;4.43;;;33.60;32.40;;;;;;6300991;28;20235;-63
2022/10/26 12:06:55;;;;;;;5.30;4.90;;;35.10;31.50;;;;;;6290141;28;20235;-64
2022/10/26 12:10:01;;;;;;;4.88;4.47;;;37.50;28.70;;;;;;6298392;28;20236;-64
2022/10/26 12:13:18;;;;;;;4.68;4.10;;;38.50;27.60;;;;;;6298913;28;20556;-64
2022/10/26 12:16:39;;;;;;;5.18;4.78;;;40.40;25.90;;;;;;6298190;28;20668;-67
2022/10/26 12:19:49;;;;;;;4.00;3.53;;;40.70;25.00;;;;;;6297398;28;20373;-67
2022/10/26 12:22:52;;;;;;;4.40;3.75;;;40.10;25.30;;;;;;6298143;28;20244;-66
2022/10/26 12:26:29;;;;;;;4.00;3.60;;;38.00;26.70;;;;;;6296643;28;20238;-67
2022/10/26 12:29:40;;;;;;;4.05;3.75;;;36.60;28.30;;;;;;6296349;28;20249;-66
2022/10/26 12:32:53;;;;;;;3.88;3.58;;;35.30;29.20;;;;;;6297467;28;20241;-66
2022/10/26 12:35:56;;;;;;;4.35;3.80;;;34.70;30.10;;;;;;6296762;28;20236;-66
2022/10/26 12:39:00;;;;;;;5.50;5.00;;;34.30;30.60;;;;;;6297946;28;20233;-66
2022/10/26 12:42:27;;;;;;;5.55;5.03;;;33.00;32.70;;;;;;6298130;28;20332;-66
2022/10/26 12:45:32;;;;;;;5.18;4.63;;;32.60;33.70;;;;;;6298897;28;20279;-66
2022/10/26 12:48:40;;;;;;;5.75;5.22;;;31.90;35.40;;;;;;6298040;28;20222;-66
2022/10/26 12:51:44;;;;;;;5.75;4.40;;;30.90;36.20;;;;;;6298878;28;20284;-66
2022/10/26 12:55:19;;;;;;;5.40;4.90;;;29.40;39.50;;;;;;6297725;28;20241;-66
2022/10/26 12:58:37;;;;;;;6.10;4.60;;;28.70;40.60;;;;;;6283344;28;20399;-67
2022/10/26 13:02:10;;;;;;;7.57;5.20;;;28.00;42.60;;;;;;6298890;28;20245;-66
2022/10/26 13:05:49;;;;;;;5.40;4.90;;;27.20;43.80;;;;;;6283015;28;20697;-66
2022/10/26 13:08:55;;;;;;;6.10;4.80;;;26.30;45.80;;;;;;6298624;28;20227;-66
2022/10/26 13:12:05;;;;;;;5.03;4.37;;;25.80;46.80;;;;;;6294296;28;20282;-67
2022/10/26 13:15:24;;;;;;;7.50;4.90;;;25.00;49.00;;;;;;6300698;28;20239;-66
2022/10/26 13:18:29;;;;;;;5.83;4.90;;;24.50;50.50;;;;;;6305319;28;20245;-66
2022/10/26 13:21:46;;;;;;;5.13;4.63;;;23.60;52.60;;;;;;6303025;28;20714;-66
2022/10/26 13:24:53;;;;;;;6.03;4.87;;;23.00;54.40;;;;;;6307313;28;20456;-66
2022/10/26 13:28:05;;;;;;;4.60;4.13;;;22.70;55.60;;;;;;6302366;28;20234;-66
2022/10/26 13:31:13;;;;;;;5.30;4.90;;;22.60;56.50;;;;;;6302659;28;20289;-66
2022/10/26 13:34:20;;;;;;;4.83;4.43;;;22.20;57.90;;;;;;6302648;28;20658;-66
2022/10/26 13:37:27;;;;;;;4.60;4.20;;;22.00;59.20;;;;;;6302649;28;20227;-65
2022/10/26 13:40:30;;;;;;;4.73;4.23;;;21.90;59.80;;;;;;6302783;28;20241;-65
2022/10/26 13:43:36;;;;;;;5.20;4.60;;;21.80;60.80;;;;;;6303019;28;20238;-65
2022/10/26 13:46:41;;;;;;;12.30;7.80;;;21.50;62.60;;;;;;6303279;28;20234;-65
2022/10/26 13:49:47;;;;;;;6.43;5.00;;;21.30;63.90;;;;;;6302724;28;20247;-65
2022/10/26 13:52:54;;;;;;;10.37;7.53;;;21.30;64.60;;;;;;6302593;28;20242;-65
2022/10/26 13:56:03;;;;;;;4.80;4.13;;;21.20;65.40;;;;;;6302248;28;20231;-65
2022/10/26 13:59:10;;;;;;;5.50;4.60;;;21.10;66.30;;;;;;6302231;28;20231;-65
2022/10/26 14:02:22;;;;;;;6.00;5.40;;;21.00;67.40;;;;;;6303867;28;20238;-66
2022/10/26 14:05:27;;;;;;;7.03;6.10;;;20.90;68.80;;;;;;6302760;28;20587;-66
2022/10/26 14:08:30;;;;;;;9.27;4.40;;;20.90;69.80;;;;;;6308217;28;20244;-66
2022/10/26 14:11:36;;;;;;;5.13;4.47;;;20.80;70.30;;;;;;6320053;28;20227;-66
2022/10/26 14:14:41;;;;;;;5.97;5.20;;;20.70;71.30;;;;;;6313166;28;20250;-66
2022/10/26 14:17:50;;;;;;;5.00;4.47;;;20.70;72.00;;;;;;6305819;28;20235;-66
2022/10/26 14:21:00;;;;;;;4.83;4.23;;;20.70;73.10;;;;;;6302338;28;20789;-66
2022/10/26 14:24:06;;;;;;;3.90;3.53;;;20.70;73.60;;;;;;6301053;28;20235;-66
2022/10/26 14:27:15;;;;;;;4.93;4.30;;;20.60;74.80;;;;;;6301879;28;20246;-66
2022/10/26 14:30:23;;;;;;;4.43;4.03;;;20.60;75.70;;;;;;6302243;28;20235;-66
2022/10/26 14:33:28;;;;;;;5.87;4.77;;;20.60;76.50;;;;;;6301934;28;20207;-66
2022/10/26 14:36:37;;;;;;;4.57;4.03;;;20.60;77.50;;;;;;6301579;28;20226;-66
2022/10/26 14:39:43;;;;;;;5.37;4.87;;;20.60;78.50;;;;;;6301700;28;20227;-65
2022/10/26 14:42:49;;;;;;;6.03;4.07;;;20.50;79.30;;;;;;6301877;28;20541;-66
2022/10/26 14:45:56;;;;;;;5.20;4.70;;;20.50;80.20;;;;;;6301624;28;20308;-66
2022/10/26 14:49:01;;;;;;;5.97;4.97;;;20.50;81.00;;;;;;6300722;28;20575;-67
2022/10/26 14:52:06;;;;;;;6.10;5.50;;;20.40;81.40;;;;;;6301038;28;20227;-66
2022/10/26 14:55:14;;;;;;;5.77;4.23;;;20.40;81.90;;;;;;6301619;28;20237;-67
2022/10/26 14:58:22;;;;;;;9.40;5.43;;;20.30;82.00;;;;;;6300964;28;20655;-66
2022/10/26 15:01:34;;;;;;;4.60;4.13;;;20.20;82.80;;;;;;6300930;28;20251;-66
2022/10/26 15:04:40;;;;;;;5.53;4.10;;;20.10;83.80;;;;;;6300504;28;20232;-65
2022/10/26 15:07:45;;;;;;;4.77;4.37;;;20.00;84.60;;;;;;6300618;28;20237;-65
2022/10/26 15:10:49;;;;;;;7.60;4.47;;;19.90;85.10;;;;;;6300362;28;20267;-65
2022/10/26 15:13:52;;;;;;;6.50;4.73;;;19.80;87.00;;;;;;6301908;28;20337;-66
2022/10/26 15:16:58;;;;;;;5.00;4.17;;;19.60;88.60;;;;;;6300962;28;20234;-65
2022/10/26 15:20:04;;;;;;;6.80;5.33;;;19.50;89.40;;;;;;6292297;28;20238;-65
2022/10/26 15:23:14;;;;;;;6.23;5.63;;;19.50;90.20;;;;;;6300558;28;20701;-65
2022/10/26 15:26:18;;;;;;;9.60;6.80;;;19.40;90.60;;;;;;6300120;28;20238;-66
2022/10/26 15:29:42;;;;;;;9.87;8.47;;;19.30;91.00;;;;;;6304952;28;20244;-66
2022/10/26 15:32:46;;;;;;;8.13;6.87;;;19.30;91.70;;;;;;6314270;28;20227;-66
2022/10/26 15:35:50;;;;;;;8.70;7.57;;;19.20;92.10;;;;;;6306516;28;20313;-66
2022/10/26 15:38:55;;;;;;;7.70;7.10;;;19.20;92.70;;;;;;6301232;28;20517;-66
2022/10/26 15:41:59;;;;;;;8.20;7.10;;;19.10;93.60;;;;;;6299725;28;20678;-66
2022/10/26 15:45:03;;;;;;;6.00;5.40;;;19.00;94.20;;;;;;6300016;28;20296;-66
2022/10/26 15:48:24;;;;;;;6.53;5.93;;;19.00;94.80;;;;;;6298869;28;20314;-66
2022/10/26 15:51:28;;;;;;;7.80;6.13;;;18.90;95.50;;;;;;6299133;28;20223;-65
2022/10/26 15:54:33;;;;;;;9.53;6.07;;;18.80;96.10;;;;;;6298985;28;20254;-65
2022/10/26 15:57:37;;;;;;;6.57;5.97;;;18.70;96.50;;;;;;6299690;28;20238;-66
2022/10/26 16:00:41;;;;;;;7.03;5.37;;;18.60;97.10;;;;;;6299052;28;20229;-66
2022/10/26 16:03:44;;;;;;;7.07;5.93;;;18.50;97.50;;;;;;6299988;28;20233;-65
2022/10/26 16:06:48;;;;;;;9.00;5.80;;;18.50;98.10;;;;;;6300582;28;20237;-65
2022/10/26 16:09:53;;;;;;;10.20;6.73;;;18.40;98.60;;;;;;6301899;28;20238;-65
2022/10/26 16:12:58;;;;;;;10.00;7.30;;;18.20;99.30;;;;;;6300553;28;20234;-65
2022/10/26 16:16:01;;;;;;;8.33;7.50;;;18.20;99.80;;;;;;6301006;28;20227;-65